VLG2473 LEMH-LEBL
Flight info
| Callsign | VLG2473 |
|---|---|
| Flight time | 0h 30m |
| Altitude | 18000 |
| Route | LUNIK Q255 OSTUR |
| Aircraft | A20N/M-SDE2E3FGHIRWXY/LB1 |
Departure
| Time | 2026-05-07 21:46 |
|---|---|
| Airport | Menorca Airport (LEMH) |
Arrival
| Time | 2026-05-07 22:16 |
|---|---|
| Airport | Josep Tarradellas Barcelona-El Prat Airport (LEBL) |
| Time | Latitude | Longitude | Altitude | Speed | Heading |
|---|---|---|---|---|---|
| 2026-05-07 21:21 | 39.86575 | 4.22431 | 293 ft | 0 kts | 99° |
| 2026-05-07 21:37 | 39.86577 | 4.22410 | 291 ft | 4 kts | 95° |
| 2026-05-07 21:37 | 39.86578 | 4.22376 | 291 ft | 4 kts | 81° |
| 2026-05-07 21:37 | 39.86570 | 4.22345 | 293 ft | 4 kts | 43° |
| 2026-05-07 21:38 | 39.86559 | 4.22336 | 296 ft | 1 kts | 8° |
| 2026-05-07 21:40 | 39.86569 | 4.22337 | 295 ft | 5 kts | 6° |
| 2026-05-07 21:40 | 39.86620 | 4.22347 | 293 ft | 15 kts | 9° |
| 2026-05-07 21:41 | 39.86779 | 4.22379 | 295 ft | 23 kts | 15° |
| 2026-05-07 21:41 | 39.86852 | 4.22397 | 300 ft | 4 kts | 8° |
| 2026-05-07 21:42 | 39.86853 | 4.22397 | 301 ft | 0 kts | 8° |
| 2026-05-07 21:42 | 39.86858 | 4.22398 | 297 ft | 5 kts | 8° |
| 2026-05-07 21:42 | 39.86913 | 4.22363 | 303 ft | 12 kts | 297° |
| 2026-05-07 21:42 | 39.86939 | 4.22258 | 306 ft | 9 kts | 329° |
| 2026-05-07 21:43 | 39.87066 | 4.22269 | 308 ft | 25 kts | 8° |
| 2026-05-07 21:43 | 39.87196 | 4.22298 | 310 ft | 18 kts | 10° |
| 2026-05-07 21:43 | 39.87311 | 4.22321 | 314 ft | 15 kts | 7° |
| 2026-05-07 21:43 | 39.87394 | 4.22337 | 318 ft | 9 kts | 9° |
| 2026-05-07 21:44 | 39.87455 | 4.22315 | 319 ft | 11 kts | 300° |
| 2026-05-07 21:44 | 39.87430 | 4.22193 | 316 ft | 21 kts | 237° |
| 2026-05-07 21:44 | 39.87326 | 4.22084 | 313 ft | 14 kts | 187° |
| 2026-05-07 21:44 | 39.87297 | 4.22078 | 312 ft | 0 kts | 188° |
| 2026-05-07 21:45 | 39.87226 | 4.22064 | 311 ft | 32 kts | 189° |
| 2026-05-07 21:45 | 39.86738 | 4.21954 | 305 ft | 110 kts | 192° |
| 2026-05-07 21:46 | 39.85756 | 4.21757 | 459 ft | 163 kts | 197° |
| 2026-05-07 21:46 | 39.84582 | 4.21472 | 1106 ft | 177 kts | 199° |
| 2026-05-07 21:46 | 39.83321 | 4.21168 | 1703 ft | 198 kts | 198° |
| 2026-05-07 21:46 | 39.81896 | 4.20918 | 2264 ft | 215 kts | 194° |
| 2026-05-07 21:47 | 39.80393 | 4.20460 | 2780 ft | 230 kts | 210° |
| 2026-05-07 21:47 | 39.79120 | 4.19229 | 3514 ft | 233 kts | 237° |
| 2026-05-07 21:47 | 39.78544 | 4.17284 | 4486 ft | 232 kts | 268° |
| 2026-05-07 21:47 | 39.78934 | 4.15279 | 5444 ft | 239 kts | 295° |
| 2026-05-07 21:48 | 39.79896 | 4.13474 | 6425 ft | 247 kts | 307° |
| 2026-05-07 21:48 | 39.81116 | 4.11855 | 7380 ft | 253 kts | 313° |
| 2026-05-07 21:48 | 39.82448 | 4.10329 | 8306 ft | 257 kts | 313° |
| 2026-05-07 21:48 | 39.83623 | 4.08585 | 9212 ft | 257 kts | 301° |
| 2026-05-07 21:49 | 39.84558 | 4.06591 | 10122 ft | 259 kts | 296° |
| 2026-05-07 21:49 | 39.85446 | 4.04465 | 10672 ft | 278 kts | 295° |
| 2026-05-07 21:49 | 39.86378 | 4.02135 | 11087 ft | 300 kts | 295° |
| 2026-05-07 21:49 | 39.87352 | 3.99667 | 11762 ft | 311 kts | 295° |
| 2026-05-07 21:50 | 39.88347 | 3.97137 | 12591 ft | 317 kts | 295° |
| 2026-05-07 21:50 | 39.89349 | 3.94586 | 13431 ft | 322 kts | 295° |
| 2026-05-07 21:50 | 39.90384 | 3.91941 | 14294 ft | 326 kts | 295° |
| 2026-05-07 21:50 | 39.91409 | 3.89319 | 15099 ft | 331 kts | 295° |
| 2026-05-07 21:51 | 39.92460 | 3.86628 | 15894 ft | 335 kts | 295° |
| 2026-05-07 21:51 | 39.93522 | 3.83903 | 16678 ft | 340 kts | 295° |
| 2026-05-07 21:51 | 39.94599 | 3.81137 | 17418 ft | 344 kts | 295° |
| 2026-05-07 21:51 | 39.95685 | 3.78347 | 17855 ft | 346 kts | 295° |
| 2026-05-07 21:52 | 39.96777 | 3.75538 | 17992 ft | 347 kts | 295° |
| 2026-05-07 21:52 | 39.97874 | 3.72714 | 18000 ft | 349 kts | 295° |
| 2026-05-07 21:52 | 39.98959 | 3.69918 | 17993 ft | 349 kts | 295° |
| 2026-05-07 21:52 | 40.00055 | 3.67089 | 18002 ft | 350 kts | 295° |
| 2026-05-07 21:53 | 40.01151 | 3.64260 | 18001 ft | 350 kts | 295° |
| 2026-05-07 21:53 | 40.02252 | 3.61416 | 17999 ft | 350 kts | 295° |
| 2026-05-07 21:53 | 40.03349 | 3.58577 | 17997 ft | 350 kts | 295° |
| 2026-05-07 21:53 | 40.04074 | 3.56699 | 18007 ft | 350 kts | 295° |
| 2026-05-07 21:54 | 40.05526 | 3.52936 | 18000 ft | 349 kts | 295° |
| 2026-05-07 21:54 | 40.06619 | 3.50099 | 17996 ft | 349 kts | 294° |
| 2026-05-07 21:54 | 40.07357 | 3.48182 | 17999 ft | 349 kts | 294° |
| 2026-05-07 21:54 | 40.08448 | 3.45344 | 17997 ft | 350 kts | 294° |
| 2026-05-07 21:55 | 40.09539 | 3.42507 | 17997 ft | 350 kts | 294° |
| 2026-05-07 21:55 | 40.10632 | 3.39660 | 18004 ft | 350 kts | 294° |
| 2026-05-07 21:55 | 40.11721 | 3.36822 | 17996 ft | 350 kts | 294° |
| 2026-05-07 21:55 | 40.12795 | 3.34020 | 18001 ft | 350 kts | 294° |
| 2026-05-07 21:56 | 40.13884 | 3.31177 | 18001 ft | 350 kts | 294° |
| 2026-05-07 21:56 | 40.14973 | 3.28331 | 18003 ft | 350 kts | 294° |
| 2026-05-07 21:56 | 40.16064 | 3.25474 | 17996 ft | 350 kts | 294° |
| 2026-05-07 21:56 | 40.17150 | 3.22633 | 17995 ft | 349 kts | 295° |
| 2026-05-07 21:57 | 40.18408 | 3.19898 | 18001 ft | 352 kts | 304° |
| 2026-05-07 21:57 | 40.20000 | 3.17468 | 18006 ft | 354 kts | 310° |
| 2026-05-07 21:57 | 40.21732 | 3.15144 | 18051 ft | 372 kts | 314° |
| 2026-05-07 21:57 | 40.23616 | 3.12715 | 18000 ft | 385 kts | 315° |
| 2026-05-07 21:58 | 40.25541 | 3.10264 | 18000 ft | 391 kts | 315° |
| 2026-05-07 21:58 | 40.27492 | 3.07792 | 18002 ft | 390 kts | 315° |
| 2026-05-07 21:58 | 40.29451 | 3.05312 | 17860 ft | 391 kts | 315° |
| 2026-05-07 21:58 | 40.31407 | 3.02836 | 18021 ft | 389 kts | 314° |
| 2026-05-07 21:59 | 40.33340 | 3.00388 | 17994 ft | 384 kts | 314° |
| 2026-05-07 21:59 | 40.35261 | 2.97951 | 17998 ft | 383 kts | 313° |
| 2026-05-07 21:59 | 40.37175 | 2.95521 | 17999 ft | 383 kts | 313° |
| 2026-05-07 21:59 | 40.39096 | 2.93082 | 17999 ft | 383 kts | 314° |
| 2026-05-07 22:00 | 40.41006 | 2.90653 | 17999 ft | 383 kts | 314° |
| 2026-05-07 22:00 | 40.42919 | 2.88222 | 18002 ft | 383 kts | 313° |
| 2026-05-07 22:00 | 40.44831 | 2.85787 | 18007 ft | 382 kts | 314° |
| 2026-05-07 22:00 | 40.46718 | 2.83383 | 18001 ft | 380 kts | 314° |
| 2026-05-07 22:01 | 40.48600 | 2.80984 | 17769 ft | 373 kts | 314° |
| 2026-05-07 22:01 | 40.50448 | 2.78627 | 17508 ft | 369 kts | 313° |
| 2026-05-07 22:01 | 40.52284 | 2.76282 | 17254 ft | 367 kts | 314° |
| 2026-05-07 22:01 | 40.54116 | 2.73939 | 16981 ft | 366 kts | 314° |
| 2026-05-07 22:02 | 40.55937 | 2.71610 | 16722 ft | 364 kts | 313° |
| 2026-05-07 22:02 | 40.57751 | 2.69288 | 16465 ft | 363 kts | 314° |
| 2026-05-07 22:02 | 40.59543 | 2.66992 | 16083 ft | 357 kts | 314° |
| 2026-05-07 22:02 | 40.61316 | 2.64719 | 15544 ft | 355 kts | 313° |
| 2026-05-07 22:03 | 40.63083 | 2.62449 | 14982 ft | 354 kts | 314° |
| 2026-05-07 22:03 | 40.64846 | 2.60185 | 14414 ft | 354 kts | 314° |
| 2026-05-07 22:03 | 40.66605 | 2.57924 | 13843 ft | 353 kts | 314° |
| 2026-05-07 22:03 | 40.68363 | 2.55662 | 13247 ft | 352 kts | 314° |
| 2026-05-07 22:04 | 40.70086 | 2.53442 | 12697 ft | 349 kts | 315° |
| 2026-05-07 22:04 | 40.71817 | 2.51212 | 12153 ft | 347 kts | 315° |
| 2026-05-07 22:04 | 40.73538 | 2.48993 | 11596 ft | 344 kts | 315° |
| 2026-05-07 22:04 | 40.75246 | 2.46789 | 11039 ft | 342 kts | 315° |
| 2026-05-07 22:05 | 40.76943 | 2.44598 | 10502 ft | 340 kts | 316° |
| 2026-05-07 22:05 | 40.78621 | 2.42428 | 10131 ft | 333 kts | 316° |
| 2026-05-07 22:05 | 40.80231 | 2.40344 | 10042 ft | 316 kts | 316° |
| 2026-05-07 22:05 | 40.81765 | 2.38359 | 9937 ft | 302 kts | 316° |
| 2026-05-07 22:06 | 40.83234 | 2.36456 | 9728 ft | 291 kts | 316° |
| 2026-05-07 22:06 | 40.84661 | 2.34608 | 9272 ft | 290 kts | 317° |
| 2026-05-07 22:06 | 40.86008 | 2.32895 | 8888 ft | 288 kts | 318° |
| 2026-05-07 22:06 | 40.87170 | 2.30755 | 8340 ft | 292 kts | 290° |
| 2026-05-07 22:07 | 40.87426 | 2.28101 | 7875 ft | 293 kts | 270° |
| 2026-05-07 22:07 | 40.87547 | 2.25430 | 7495 ft | 290 kts | 282° |
| 2026-05-07 22:07 | 40.88223 | 2.22952 | 7112 ft | 285 kts | 302° |
| 2026-05-07 22:07 | 40.89488 | 2.20984 | 6762 ft | 280 kts | 319° |
| 2026-05-07 22:08 | 40.91000 | 2.19386 | 6436 ft | 277 kts | 324° |
| 2026-05-07 22:08 | 40.92596 | 2.17969 | 6023 ft | 276 kts | 333° |
| 2026-05-07 22:08 | 40.94337 | 2.16890 | 5520 ft | 278 kts | 338° |
| 2026-05-07 22:08 | 40.96106 | 2.15924 | 5061 ft | 278 kts | 339° |
| 2026-05-07 22:09 | 40.97878 | 2.15000 | 4873 ft | 268 kts | 340° |
| 2026-05-07 22:09 | 40.99584 | 2.14126 | 4713 ft | 257 kts | 340° |
| 2026-05-07 22:09 | 41.01221 | 2.13294 | 4568 ft | 246 kts | 341° |
| 2026-05-07 22:09 | 41.02787 | 2.12502 | 4457 ft | 234 kts | 340° |
| 2026-05-07 22:10 | 41.04254 | 2.11761 | 4351 ft | 218 kts | 341° |
| 2026-05-07 22:10 | 41.05641 | 2.11061 | 4120 ft | 209 kts | 342° |
| 2026-05-07 22:10 | 41.06965 | 2.10394 | 3940 ft | 198 kts | 341° |
| 2026-05-07 22:10 | 41.08217 | 2.09763 | 3807 ft | 186 kts | 341° |
| 2026-05-07 22:11 | 41.09397 | 2.09169 | 3599 ft | 178 kts | 341° |
| 2026-05-07 22:11 | 41.10531 | 2.08600 | 3367 ft | 174 kts | 341° |
| 2026-05-07 22:11 | 41.11654 | 2.08035 | 3127 ft | 172 kts | 341° |
| 2026-05-07 22:11 | 41.12771 | 2.07474 | 2830 ft | 172 kts | 341° |
| 2026-05-07 22:12 | 41.13886 | 2.06913 | 2550 ft | 170 kts | 342° |
| 2026-05-07 22:12 | 41.14990 | 2.06356 | 2253 ft | 170 kts | 341° |
| 2026-05-07 22:12 | 41.16058 | 2.05816 | 2105 ft | 156 kts | 341° |
| 2026-05-07 22:12 | 41.17048 | 2.05315 | 2018 ft | 150 kts | 342° |
| 2026-05-07 22:13 | 41.18020 | 2.04826 | 2000 ft | 148 kts | 342° |
| 2026-05-07 22:13 | 41.18984 | 2.04395 | 2004 ft | 145 kts | 353° |
| 2026-05-07 22:13 | 41.19951 | 2.04477 | 2007 ft | 141 kts | 18° |
| 2026-05-07 22:13 | 41.20910 | 2.04843 | 1885 ft | 142 kts | 17° |
| 2026-05-07 22:14 | 41.21843 | 2.05180 | 1572 ft | 139 kts | 24° |
| 2026-05-07 22:14 | 41.22767 | 2.05648 | 1275 ft | 147 kts | 24° |
| 2026-05-07 22:14 | 41.23733 | 2.06118 | 1074 ft | 149 kts | 21° |
| 2026-05-07 22:14 | 41.24707 | 2.06559 | 886 ft | 147 kts | 24° |
| 2026-05-07 22:15 | 41.25644 | 2.07027 | 736 ft | 142 kts | 23° |
| 2026-05-07 22:15 | 41.26584 | 2.07457 | 506 ft | 142 kts | 20° |
| 2026-05-07 22:15 | 41.27486 | 2.07884 | 303 ft | 133 kts | 21° |
| 2026-05-07 22:15 | 41.28332 | 2.08274 | 144 ft | 127 kts | 19° |
| 2026-05-07 22:16 | 41.29154 | 2.08650 | 22 ft | 122 kts | 19° |
| 2026-05-07 22:16 | 41.29823 | 2.08954 | 22 ft | 77 kts | 18° |
| 2026-05-07 22:16 | 41.30145 | 2.09117 | 22 ft | 27 kts | 26° |
| 2026-05-07 22:16 | 41.30212 | 2.09148 | 21 ft | 11 kts | 16° |
| 2026-05-07 22:17 | 41.30301 | 2.09184 | 21 ft | 21 kts | 16° |
| 2026-05-07 22:17 | 41.30485 | 2.09263 | 23 ft | 30 kts | 17° |
| 2026-05-07 22:17 | 41.30631 | 2.09222 | 24 ft | 17 kts | 317° |
| 2026-05-07 22:17 | 41.30681 | 2.09126 | 21 ft | 0 kts | 265° |
| 2026-05-07 22:18 | 41.30678 | 2.09111 | 21 ft | 6 kts | 251° |
| 2026-05-07 22:18 | 41.30635 | 2.09067 | 22 ft | 6 kts | 201° |
| 2026-05-07 22:19 | 41.30593 | 2.09045 | 21 ft | 7 kts | 201° |
| 2026-05-07 22:19 | 41.30546 | 2.09024 | 21 ft | 7 kts | 198° |
| 2026-05-07 22:19 | 41.30498 | 2.09004 | 21 ft | 7 kts | 198° |
| 2026-05-07 22:19 | 41.30445 | 2.08981 | 21 ft | 9 kts | 198° |
| 2026-05-07 22:20 | 41.30398 | 2.08925 | 20 ft | 14 kts | 241° |
| 2026-05-07 22:20 | 41.30333 | 2.08731 | 20 ft | 28 kts | 243° |
| 2026-05-07 22:20 | 41.30318 | 2.08610 | 22 ft | 7 kts | 328° |
| 2026-05-07 22:20 | 41.30400 | 2.08557 | 25 ft | 15 kts | 336° |
| 2026-05-07 22:21 | 41.30479 | 2.08479 | 24 ft | 16 kts | 310° |
| 2026-05-07 22:21 | 41.30536 | 2.08421 | 26 ft | 0 kts | 335° |
| 2026-05-07 22:21 | 41.30548 | 2.08414 | 29 ft | 6 kts | 335° |
| 2026-05-07 22:21 | 41.30572 | 2.08414 | 27 ft | 4 kts | 25° |
| 2026-05-07 22:22 | 41.30592 | 2.08459 | 27 ft | 6 kts | 68° |
| 2026-05-07 22:22 | 41.30599 | 2.08478 | 27 ft | 0 kts | 66° |